Unger, West Virginia
Current Conditions -  °F | °C
As of 1:53 AM on Saturday 25 Oct 2014 (Local Time) from KMRB Reporting Station
Clear Clear  
Wind Chill: 47°   Ceiling: Unl
Heat Index: 47°   Visibility: 10mi
Dew Point: 36°   Wind: 3mph
Humidity: 66%   Direction: 190°S
Pressure: 29.97"   Gusts: NA
Location:  39.5563°N, 78.2182°W
Report Text: KMRB 250553Z AUTO 19003KT 10SM CLR 08/02 A2997 RMK AO2 SLP150 T00830022 10144 20078 58004 TSNO
Loading
Personal Weather Stations






























Interactive Weather Map
Tropical Storm Tracking
New forecast layout! Learn more

10-Day Weather Forecast

Advertisements
Track Severe Weather on mobile